Warning: Javascript must be enabled to use all the features on this page!


Page Loading - Please Wait...

Click to hideNews Bulletins
  • Due to a lapse in appropriations, the majority of USGS websites may not be up to date and may not reflect current conditions. Websites displaying real-time data, such as Earthquake and Water and information needed for public health and safety will be updated with limited support. Additionally, USGS will not be able to respond to inquiries until appropriations are enacted. For more information, please see www.doi.gov/shutdown.

  • Please see news on new formats
  • Full News RSS icon
Click to hide state-specific text

 


USGS 02248380 HAULOVER CANAL NEAR MIMS,FL

PROVISIONAL DATA SUBJECT TO REVISION

Click to hidestation-specific text

This gage is monitored in cooperation with the St. Johns River Water Management District.

Link to the St. Johns River Water Management District.

REMARKS.--Computed discharge at this station may differ from individual measurements because of changes in tidal influence, wind, or other factors.

Available Parameters Available Period
All 6 Available Parameters for this site
  
00010 Temperature, water 2007-10-01  2016-10-20
00060 Discharge 1995-08-03  2019-01-20
00065 Gage height 2007-10-01  2019-01-20
00095 Specific cond at 25C 2007-10-01  2016-10-20
63160 Stream level, NAVD 2010-10-01  2019-01-20
99133 NO3+NO2,water,insitu 2016-10-01  2016-10-20

Graph
Graph w/ stats
Graph w/o stats
Graph w/ (up to 3) parms
Table
Tab-separated
Days  (7)
 

  -- or --
Begin date
 

End date
 

Summary of all available data for this site
Instantaneous-data availability statement






Date / Time




Dis-
charge,
ft3/s,




Gage
height,
feet,
Stream
water
level
above
NAVD
1988,
feet,
01/13/2019 00:00 EST3,430P  0.56P  -0.68P  
01/13/2019 00:15 EST3,450P  0.56P  -0.68P  
01/13/2019 00:30 EST3,290P  0.56P  -0.68P  
01/13/2019 00:45 EST3,220P  0.56P  -0.68P  
01/13/2019 01:00 EST3,180P  0.56P  -0.68P  
01/13/2019 01:15 EST3,130P  0.56P  -0.68P  
01/13/2019 01:30 EST2,980P  0.56P  -0.68P  
01/13/2019 01:45 EST2,720P  0.57P  -0.67P  
01/13/2019 02:00 EST2,430P  0.57P  -0.67P  
01/13/2019 02:15 EST2,160P  0.58P  -0.66P  
01/13/2019 02:30 EST1,910P  0.59P  -0.65P  
01/13/2019 02:45 EST1,520P  0.59P  -0.65P  
01/13/2019 03:00 EST1,320P  0.60P  -0.64P  
01/13/2019 03:15 EST1,050P  0.60P  -0.64P  
01/13/2019 03:30 EST636P  0.60P  -0.64P  
01/13/2019 03:45 EST186P  0.60P  -0.64P  
01/13/2019 04:00 EST-407P  0.60P  -0.64P  
01/13/2019 04:15 EST-749P  0.60P  -0.64P  
01/13/2019 04:30 EST-1,040P  0.60P  -0.64P  
01/13/2019 04:45 EST-1,290P  0.60P  -0.64P  
01/13/2019 05:00 EST-1,360P  0.60P  -0.64P  
01/13/2019 05:15 EST-1,700P  0.60P  -0.64P  
01/13/2019 05:30 EST-1,580P  0.60P  -0.64P  
01/13/2019 05:45 EST-1,500P  0.61P  -0.63P  
01/13/2019 06:00 EST-1,450P  0.61P  -0.63P  
01/13/2019 06:15 EST-1,180P  0.62P  -0.62P  
01/13/2019 06:30 EST-1,200P  0.62P  -0.62P  
01/13/2019 06:45 EST-1,130P  0.63P  -0.61P  
01/13/2019 07:00 EST-894P  0.63P  -0.61P  
01/13/2019 07:15 EST-679P  0.64P  -0.60P  
01/13/2019 07:30 EST-408P  0.64P  -0.60P  
01/13/2019 07:45 EST-120P  0.64P  -0.60P  
01/13/2019 08:00 EST331P  0.65P  -0.59P  
01/13/2019 08:15 EST584P  0.65P  -0.59P  
01/13/2019 08:30 EST1,050P  0.65P  -0.59P  
01/13/2019 08:45 EST1,500P  0.65P  -0.59P  
01/13/2019 09:00 EST1,900P  0.65P  -0.59P  
01/13/2019 09:15 EST2,210P  0.65P  -0.59P  
01/13/2019 09:30 EST2,400P  0.64P  -0.60P  
01/13/2019 09:45 EST2,550P  0.63P  -0.61P  
01/13/2019 10:00 EST2,780P  0.63P  -0.61P  
01/13/2019 10:15 EST3,100P  0.62P  -0.62P  
01/13/2019 10:30 EST3,320P  0.61P  -0.63P  
01/13/2019 10:45 EST3,550P  0.61P  -0.63P  
01/13/2019 11:00 EST3,710P  0.61P  -0.63P  
01/13/2019 11:15 EST3,820P  0.60P  -0.64P  
01/13/2019 11:30 EST3,910P  0.60P  -0.64P  
01/13/2019 11:45 EST3,890P  0.61P  -0.63P  
01/13/2019 12:00 EST3,930P  0.60P  -0.64P  
01/13/2019 12:15 EST4,100P  0.59P  -0.65P  
01/13/2019 12:30 EST4,320P  0.59P  -0.65P  
01/13/2019 12:45 EST4,390P  0.60P  -0.64P  
01/13/2019 13:00 EST4,500P  0.59P  -0.65P  
01/13/2019 13:15 EST4,570P  0.58P  -0.66P  
01/13/2019 13:30 EST4,350P  0.59P  -0.65P  
01/13/2019 13:45 EST4,160P  0.60P  -0.64P  
01/13/2019 14:00 EST3,910P  0.60P  -0.64P  
01/13/2019 14:15 EST3,600P  0.61P  -0.63P  
01/13/2019 14:30 EST3,250P  0.62P  -0.62P  
01/13/2019 14:45 EST3,050P  0.63P  -0.61P  
01/13/2019 15:00 EST2,780P  0.64P  -0.60P  
01/13/2019 15:15 EST2,390P  0.66P  -0.58P  
01/13/2019 15:30 EST2,080P  0.66P  -0.58P  
01/13/2019 15:45 EST1,830P  0.69P  -0.55P  
01/13/2019 16:00 EST1,450P  0.69P  -0.55P  
01/13/2019 16:15 EST1,020P  0.69P  -0.55P  
01/13/2019 16:30 EST386P  0.68P  -0.56P  
01/13/2019 16:45 EST-355P  0.67P  -0.57P  
01/13/2019 17:00 EST-1,000P  0.66P  -0.58P  
01/13/2019 17:15 EST-1,490P  0.65P  -0.59P  
01/13/2019 17:30 EST-1,910P  0.65P  -0.59P  
01/13/2019 17:45 EST-2,070P  0.65P  -0.59P  
01/13/2019 18:00 EST-2,320P  0.64P  -0.60P  
01/13/2019 18:15 EST-2,410P  0.64P  -0.60P  
01/13/2019 18:30 EST-2,430P  0.64P  -0.60P  
01/13/2019 18:45 EST-2,350P  0.64P  -0.60P  
01/13/2019 19:00 EST-2,340P  0.64P  -0.60P  
01/13/2019 19:15 EST-2,160P  0.64P  -0.60P  
01/13/2019 19:30 EST-1,990P  0.64P  -0.60P  
01/13/2019 19:45 EST-1,870P  0.64P  -0.60P  
01/13/2019 20:00 EST-1,710P  0.64P  -0.60P  
01/13/2019 20:15 EST-1,450P  0.65P  -0.59P  
01/13/2019 20:30 EST-1,490P  0.64P  -0.60P  
01/13/2019 20:45 EST-1,510P  0.64P  -0.60P  
01/13/2019 21:00 EST-1,450P  0.63P  -0.61P  
01/13/2019 21:15 EST-1,270P  0.63P  -0.61P  
01/13/2019 21:30 EST-1,110P  0.63P  -0.61P  
01/13/2019 21:45 EST-1,180P  0.63P  -0.61P  
01/13/2019 22:00 EST-1,020P  0.63P  -0.61P  
01/13/2019 22:15 EST-786P  0.63P  -0.61P  
01/13/2019 22:30 EST-480P  0.63P  -0.61P  
01/13/2019 22:45 EST24.4P  0.63P  -0.61P  
01/13/2019 23:00 EST493P  0.63P  -0.61P  
01/13/2019 23:15 EST943P  0.63P  -0.61P  
01/13/2019 23:30 EST1,230P  0.63P  -0.61P  
01/13/2019 23:45 EST1,610P  0.63P  -0.61P  
01/14/2019 00:00 EST1,970P  0.62P  -0.62P  
01/14/2019 00:15 EST2,290P  0.62P  -0.62P  
01/14/2019 00:30 EST2,380P  0.61P  -0.63P  
01/14/2019 00:45 EST2,540P  0.61P  -0.63P  
01/14/2019 01:00 EST2,450P  0.60P  -0.64P  
01/14/2019 01:15 EST2,600P  0.60P  -0.64P  
01/14/2019 01:30 EST2,670P  0.60P  -0.64P  
01/14/2019 01:45 EST2,740P  0.61P  -0.63P  
01/14/2019 02:00 EST2,540P  0.60P  -0.64P  
01/14/2019 02:15 EST2,270P  0.60P  -0.64P  
01/14/2019 02:30 EST1,930P  0.60P  -0.64P  
01/14/2019 02:45 EST1,480P  0.60P  -0.64P  
01/14/2019 03:00 EST1,050P  0.60P  -0.64P  
01/14/2019 03:15 EST474P  0.60P  -0.64P  
01/14/2019 03:30 EST-317P  0.60P  -0.64P  
01/14/2019 03:45 EST-1,290P  0.59P  -0.65P  
01/14/2019 04:00 EST-2,060P  0.56P  -0.68P  
01/14/2019 04:15 EST-2,720P  0.54P  -0.70P  
01/14/2019 04:30 EST-3,240P  0.55P  -0.69P  
01/14/2019 04:45 EST-3,460P  0.51P  -0.73P  
01/14/2019 05:00 EST-3,500P  0.51P  -0.73P  
01/14/2019 05:15 EST-3,600P  0.50P  -0.74P  
01/14/2019 05:30 EST-3,530P  0.50P  -0.74P  
01/14/2019 05:45 EST-3,550P  0.51P  -0.73P  
01/14/2019 06:00 EST-3,600P  0.51P  -0.73P  
01/14/2019 06:15 EST-3,770P  0.51P  -0.73P  
01/14/2019 06:30 EST-3,780P  0.50P  -0.74P  
01/14/2019 06:45 EST-3,980P  0.50P  -0.74P  
01/14/2019 07:00 EST-4,050P  0.50P  -0.74P  
01/14/2019 07:15 EST-4,110P  0.51P  -0.73P  
01/14/2019 07:30 EST-4,140P  0.50P  -0.74P  
01/14/2019 07:45 EST-4,210P  0.50P  -0.74P  
01/14/2019 08:00 EST-4,230P  0.50P  -0.74P  
01/14/2019 08:15 EST-4,250P  0.50P  -0.74P  
01/14/2019 08:30 EST-4,350P  0.48P  -0.76P  
01/14/2019 08:45 EST-4,360P  0.47P  -0.77P  
01/14/2019 09:00 EST-4,540P  0.46P  -0.78P  
01/14/2019 09:15 EST-4,680P  0.45P  -0.79P  
01/14/2019 09:30 EST-4,660P  0.44P  -0.80P  
01/14/2019 09:45 EST-4,750P  0.44P  -0.80P  
01/14/2019 10:00 EST-4,630P  0.42P  -0.82P  
01/14/2019 10:15 EST-4,670P  0.41P  -0.83P  
01/14/2019 10:30 EST-4,630P  0.40P  -0.84P  
01/14/2019 10:45 EST-4,520P  0.40P  -0.84P  
01/14/2019 11:00 EST-4,540P  0.39P  -0.85P  
01/14/2019 11:15 EST-4,550P  0.37P  -0.87P  
01/14/2019 11:30 EST-4,460P  0.37P  -0.87P  
01/14/2019 11:45 EST-4,600P  0.37P  -0.87P  
01/14/2019 12:00 EST-4,540P  0.36P  -0.88P  
01/14/2019 12:15 EST-4,380P  0.36P  -0.88P  
01/14/2019 12:30 EST-4,360P  0.35P  -0.89P  
01/14/2019 12:45 EST-4,220P  0.35P  -0.89P  
01/14/2019 13:00 EST-4,240P  0.34P  -0.90P  
01/14/2019 13:15 EST-4,130P  0.35P  -0.89P  
01/14/2019 13:30 EST-4,200P  0.34P  -0.90P  
01/14/2019 13:45 EST-4,220P  0.34P  -0.90P  
01/14/2019 14:00 EST-4,220P  0.33P  -0.91P  
01/14/2019 14:15 EST-4,240P  0.33P  -0.91P  
01/14/2019 14:30 EST-4,240P  0.34P  -0.90P  
01/14/2019 14:45 EST-4,320P  0.33P  -0.91P  
01/14/2019 15:00 EST-4,340P  0.33P  -0.91P  
01/14/2019 15:15 EST-4,310P  0.34P  -0.90P  
01/14/2019 15:30 EST-4,240P  0.34P  -0.90P  
01/14/2019 15:45 EST-4,260P  0.34P  -0.90P  
01/14/2019 16:00 EST-4,340P  0.32P  -0.92P  
01/14/2019 16:15 EST-4,430P  0.32P  -0.92P  
01/14/2019 16:30 EST-4,710P  0.32P  -0.92P  
01/14/2019 16:45 EST-4,710P  0.31P  -0.93P  
01/14/2019 17:00 EST-4,540P  0.30P  -0.94P  
01/14/2019 17:15 EST-4,600P  0.30P  -0.94P  
01/14/2019 17:30 EST-4,640P  0.32P  -0.92P  
01/14/2019 17:45 EST-4,740P  0.32P  -0.92P  
01/14/2019 18:00 EST-4,870P  0.32P  -0.92P  
01/14/2019 18:15 EST-4,920P  0.31P  -0.93P  
01/14/2019 18:30 EST-4,950P  0.31P  -0.93P  
01/14/2019 18:45 EST-4,970P  0.30P  -0.94P  
01/14/2019 19:00 EST-4,950P  0.31P  -0.93P  
01/14/2019 19:15 EST-4,970P  0.32P  -0.92P  
01/14/2019 19:30 EST-4,960P  0.32P  -0.92P  
01/14/2019 19:45 EST-4,960P  0.32P  -0.92P  
01/14/2019 20:00 EST-4,890P  0.33P  -0.91P  
01/14/2019 20:15 EST-4,850P  0.33P  -0.91P  
01/14/2019 20:30 EST-4,740P  0.35P  -0.89P  
01/14/2019 20:45 EST-4,630P  0.34P  -0.90P  
01/14/2019 21:00 EST-4,560P  0.35P  -0.89P  
01/14/2019 21:15 EST-4,490P  0.35P  -0.89P  
01/14/2019 21:30 EST-4,350P  0.36P  -0.88P  
01/14/2019 21:45 EST-4,310P  0.36P  -0.88P  
01/14/2019 22:00 EST-4,190P  0.37P  -0.87P  
01/14/2019 22:15 EST-4,050P  0.38P  -0.86P  
01/14/2019 22:30 EST-3,840P  0.39P  -0.85P  
01/14/2019 22:45 EST-3,560P  0.39P  -0.85P  
01/14/2019 23:00 EST-3,330P  0.41P  -0.83P  
01/14/2019 23:15 EST-3,160P  0.42P  -0.82P  
01/14/2019 23:30 EST-3,000P  0.43P  -0.81P  
01/14/2019 23:45 EST-2,930P  0.43P  -0.81P  
01/15/2019 00:00 EST-2,770P  0.43P  -0.81P  
01/15/2019 00:15 EST-2,550P  0.43P  -0.81P  
01/15/2019 00:30 EST-2,380P  0.43P  -0.81P  
01/15/2019 00:45 EST-2,200P  0.43P  -0.81P  
01/15/2019 01:00 EST-2,020P  0.42P  -0.82P  
01/15/2019 01:15 EST-1,720P  0.44P  -0.80P  
01/15/2019 01:30 EST-1,420P  0.46P  -0.78P  
01/15/2019 01:45 EST-1,190P  0.46P  -0.78P  
01/15/2019 02:00 EST-1,170P  0.45P  -0.79P  
01/15/2019 02:15 EST-1,050P  0.46P  -0.78P  
01/15/2019 02:30 EST-974P  0.46P  -0.78P  
01/15/2019 02:45 EST-831P  0.46P  -0.78P  
01/15/2019 03:00 EST-831P  0.45P  -0.79P  
01/15/2019 03:15 EST-973P  0.45P  -0.79P  
01/15/2019 03:30 EST-1,010P  0.44P  -0.80P  
01/15/2019 03:45 EST-1,190P  0.44P  -0.80P  
01/15/2019 04:00 EST-1,400P  0.44P  -0.80P  
01/15/2019 04:15 EST-1,610P  0.43P  -0.81P  
01/15/2019 04:30 EST-1,810P  0.43P  -0.81P  
01/15/2019 04:45 EST-1,950P  0.43P  -0.81P  
01/15/2019 05:00 EST-2,230P  0.42P  -0.82P  
01/15/2019 05:15 EST-2,390P  0.42P  -0.82P  
01/15/2019 05:30 EST-2,550P  0.42P  -0.82P  
01/15/2019 05:45 EST-2,620P  0.41P  -0.83P  
01/15/2019 06:00 EST-2,610P  0.42P  -0.82P  
01/15/2019 06:15 EST-2,680P  0.42P  -0.82P  
01/15/2019 06:30 EST-2,730P  0.42P  -0.82P  
01/15/2019 06:45 EST-2,980P  0.41P  -0.83P  
01/15/2019 07:00 EST-3,030P  0.41P  -0.83P  
01/15/2019 07:15 EST-3,100P  0.41P  -0.83P  
01/15/2019 07:30 EST-3,050P  0.40P  -0.84P  
01/15/2019 07:45 EST-3,100P  0.40P  -0.84P  
01/15/2019 08:00 EST-3,220P  0.40P  -0.84P  
01/15/2019 08:15 EST-3,230P  0.41P  -0.83P  
01/15/2019 08:30 EST-3,180P  0.43P  -0.81P  
01/15/2019 08:45 EST-3,230P  0.43P  -0.81P  
01/15/2019 09:00 EST-3,140P  0.41P  -0.83P  
01/15/2019 09:15 EST-3,120P  0.41P  -0.83P  
01/15/2019 09:30 EST-3,090P  0.42P  -0.82P  
01/15/2019 09:45 EST-3,030P  0.42P  -0.82P  
01/15/2019 10:00 EST-3,070P  0.42P  -0.82P  
01/15/2019 10:15 EST-3,160P  0.41P  -0.83P  
01/15/2019 10:30 EST-3,190P  0.41P  -0.83P  
01/15/2019 10:45 EST-3,390P  0.41P  -0.83P  
01/15/2019 11:00 EST-3,390P  0.41P  -0.83P  
01/15/2019 11:15 EST-3,260P  0.40P  -0.84P  
01/15/2019 11:30 EST-3,330P  0.39P  -0.85P  
01/15/2019 11:45 EST-3,190P  0.39P  -0.85P  
01/15/2019 12:00 EST-2,940P  0.39P  -0.85P  
01/15/2019 12:15 EST-2,890P  0.39P  -0.85P  
01/15/2019 12:30 EST-2,730P  0.39P  -0.85P  
01/15/2019 12:45 EST-2,550P  0.41P  -0.83P  
01/15/2019 13:00 EST-2,680P  0.41P  -0.83P  
01/15/2019 13:15 EST-2,670P  0.40P  -0.84P  
01/15/2019 13:30 EST-2,660P  0.40P  -0.84P  
01/15/2019 13:45 EST-2,650P  0.39P  -0.85P  
01/15/2019 14:00 EST-2,650P  0.39P  -0.85P  
01/15/2019 14:15 EST-2,690P  0.36P  -0.88P  
01/15/2019 14:30 EST-2,610P  0.36P  -0.88P  
01/15/2019 14:45 EST-2,670P  0.38P  -0.86P  
01/15/2019 15:00 EST-2,540P  0.36P  -0.88P  
01/15/2019 15:15 EST-2,790P  0.36P  -0.88P  
01/15/2019 15:30 EST-3,060P  0.38P  -0.86P  
01/15/2019 15:45 EST-3,290P  0.37P  -0.87P  
01/15/2019 16:00 EST-3,690P  0.34P  -0.90P  
01/15/2019 16:15 EST-3,780P  0.33P  -0.91P  
01/15/2019 16:30 EST-3,910P  0.32P  -0.92P  
01/15/2019 16:45 EST-3,970P  0.32P  -0.92P  
01/15/2019 17:00 EST-4,160P  0.30P  -0.94P  
01/15/2019 17:15 EST-4,120P  0.31P  -0.93P  
01/15/2019 17:30 EST-4,350P  0.29P  -0.95P  
01/15/2019 17:45 EST-4,470P  0.27P  -0.97P  
01/15/2019 18:00 EST-4,520P  0.27P  -0.97P  
01/15/2019 18:15 EST-4,570P  0.27P  -0.97P  
01/15/2019 18:30 EST-4,600P  0.26P  -0.98P  
01/15/2019 18:45 EST-4,710P  0.26P  -0.98P  
01/15/2019 19:00 EST-4,670P  0.25P  -0.99P  
01/15/2019 19:15 EST-4,640P  0.26P  -0.98P  
01/15/2019 19:30 EST-4,800P  0.27P  -0.97P  
01/15/2019 19:45 EST-4,760P  0.27P  -0.97P  
01/15/2019 20:00 EST-4,480P  0.27P  -0.97P  
01/15/2019 20:15 EST-4,240P  0.28P  -0.96P  
01/15/2019 20:30 EST-4,190P  0.30P  -0.94P  
01/15/2019 20:45 EST-4,120P  0.30P  -0.94P  
01/15/2019 21:00 EST-4,000P  0.30P  -0.94P  
01/15/2019 21:15 EST-3,880P  0.31P  -0.93P  
01/15/2019 21:30 EST-3,770P  0.31P  -0.93P  
01/15/2019 21:45 EST-3,670P  0.32P  -0.92P  
01/15/2019 22:00 EST-3,440P  0.32P  -0.92P  
01/15/2019 22:15 EST-3,370P  0.34P  -0.90P  
01/15/2019 22:30 EST-3,160P  0.34P  -0.90P  
01/15/2019 22:45 EST-3,020P  0.35P  -0.89P  
01/15/2019 23:00 EST-3,160P  0.35P  -0.89P  
01/15/2019 23:15 EST-3,160P  0.35P  -0.89P  
01/15/2019 23:30 EST-3,050P  0.33P  -0.91P  
01/15/2019 23:45 EST-2,970P  0.35P  -0.89P  
01/16/2019 00:00 EST-2,880P  0.34P  -0.90P  
01/16/2019 00:15 EST-2,840P  0.34P  -0.90P  
01/16/2019 00:30 EST-2,730P  0.34P  -0.90P  
01/16/2019 00:45 EST-2,790P  0.35P  -0.89P  
01/16/2019 01:00 EST-2,630P  0.34P  -0.90P  
01/16/2019 01:15 EST-2,610P  0.34P  -0.90P  
01/16/2019 01:30 EST-2,610P  0.33P  -0.91P  
01/16/2019 01:45 EST-2,710P  0.32P  -0.92P  
01/16/2019 02:00 EST-2,780P  0.31P  -0.93P  
01/16/2019 02:15 EST-2,780P  0.31P  -0.93P  
01/16/2019 02:30 EST-2,800P  0.31P  -0.93P  
01/16/2019 02:45 EST-2,850P  0.30P  -0.94P  
01/16/2019 03:00 EST-2,890P  0.30P  -0.94P  
01/16/2019 03:15 EST-2,840P  0.31P  -0.93P  
01/16/2019 03:30 EST-2,850P  0.31P  -0.93P  
01/16/2019 03:45 EST-2,820P  0.31P  -0.93P  
01/16/2019 04:00 EST-2,840P  0.32P  -0.92P  
01/16/2019 04:15 EST-2,800P  0.32P  -0.92P  
01/16/2019 04:30 EST-2,870P  0.32P  -0.92P  
01/16/2019 04:45 EST-2,910P  0.32P  -0.92P  
01/16/2019 05:00 EST-2,980P  0.32P  -0.92P  
01/16/2019 05:15 EST-2,870P  0.33P  -0.91P  
01/16/2019 05:30 EST-2,960P  0.32P  -0.92P  
01/16/2019 05:45 EST-2,940P  0.32P  -0.92P  
01/16/2019 06:00 EST-2,870P  0.33P  -0.91P  
01/16/2019 06:15 EST-3,010P  0.32P  -0.92P  
01/16/2019 06:30 EST-3,080P  0.30P  -0.94P  
01/16/2019 06:45 EST-3,360P  0.31P  -0.93P  
01/16/2019 07:00 EST-3,400P  0.31P  -0.93P  
01/16/2019 07:15 EST-3,450P  0.31P  -0.93P  
01/16/2019 07:30 EST-3,490P  0.31P  -0.93P  
01/16/2019 07:45 EST-3,610P  0.29P  -0.95P  
01/16/2019 08:00 EST-3,720P  0.31P  -0.93P  
01/16/2019 08:15 EST-3,720P  0.31P  -0.93P  
01/16/2019 08:30 EST-3,890P  0.30P  -0.94P  
01/16/2019 08:45 EST-3,890P  0.31P  -0.93P  
01/16/2019 09:00 EST-4,190P  0.31P  -0.93P  
01/16/2019 09:15 EST-4,170P  0.30P  -0.94P  
01/16/2019 09:30 EST-4,020P  0.30P  -0.94P  
01/16/2019 09:45 EST-4,100P  0.30P  -0.94P  
01/16/2019 10:00 EST-4,260P  0.30P  -0.94P  
01/16/2019 10:15 EST-4,420P  0.29P  -0.95P  
01/16/2019 10:30 EST-4,470P  0.28P  -0.96P  
01/16/2019 10:45 EST-4,470P  0.29P  -0.95P  
01/16/2019 11:00 EST-4,540P  0.28P  -0.96P  
01/16/2019 11:15 EST-4,570P  0.28P  -0.96P  
01/16/2019 11:30 EST-4,540P  0.27P  -0.97P  
01/16/2019 11:45 EST-4,660P  0.26P  -0.98P  
01/16/2019 12:00 EST-4,730P  0.26P  -0.98P  
01/16/2019 12:15 EST-4,730P  0.26P  -0.98P  
01/16/2019 12:30 EST-4,760P  0.27P  -0.97P  
01/16/2019 12:45 EST-4,740P  0.26P  -0.98P  
01/16/2019 13:00 EST-4,800P  0.27P  -0.97P  
01/16/2019 13:15 EST-4,810P  0.26P  -0.98P  
01/16/2019 13:30 EST-4,660P  0.27P  -0.97P  
01/16/2019 13:45 EST-4,600P  0.26P  -0.98P  
01/16/2019 14:00 EST-4,530P  0.26P  -0.98P  
01/16/2019 14:15 EST-4,400P  0.24P  -1.00P  
01/16/2019 14:30 EST-4,250P  0.26P  -0.98P  
01/16/2019 14:45 EST-4,220P  0.26P  -0.98P  
01/16/2019 15:00 EST-4,160P  0.26P  -0.98P  
01/16/2019 15:15 EST-4,250P  0.25P  -0.99P  
01/16/2019 15:30 EST-4,300P  0.25P  -0.99P  
01/16/2019 15:45 EST-4,370P  0.25P  -0.99P  
01/16/2019 16:00 EST-4,400P  0.24P  -1.00P  
01/16/2019 16:15 EST-4,530P  0.25P  -0.99P  
01/16/2019 16:30 EST-4,690P  0.24P  -1.00P  
01/16/2019 16:45 EST-4,670P  0.24P  -1.00P  
01/16/2019 17:00 EST-4,680P  0.23P  -1.01P  
01/16/2019 17:15 EST-4,650P  0.23P  -1.01P  
01/16/2019 17:30 EST-4,510P  0.24P  -1.00P  
01/16/2019 17:45 EST-4,350P  0.25P  -0.99P  
01/16/2019 18:00 EST-4,350P  0.24P  -1.00P  
01/16/2019 18:15 EST-4,320P  0.25P  -0.99P  
01/16/2019 18:30 EST-4,300P  0.25P  -0.99P  
01/16/2019 18:45 EST-4,290P  0.26P  -0.98P  
01/16/2019 19:00 EST-4,200P  0.26P  -0.98P  
01/16/2019 19:15 EST-4,160P  0.26P  -0.98P  
01/16/2019 19:30 EST-4,110P  0.27P  -0.97P  
01/16/2019 19:45 EST-4,090P  0.26P  -0.98P  
01/16/2019 20:00 EST-3,990P  0.27P  -0.97P  
01/16/2019 20:15 EST-4,040P  0.27P  -0.97P  
01/16/2019 20:30 EST-3,990P  0.27P  -0.97P  
01/16/2019 20:45 EST-3,960P  0.28P  -0.96P  
01/16/2019 21:00 EST-3,840P  0.29P  -0.95P  
01/16/2019 21:15 EST-3,770P  0.30P  -0.94P  
01/16/2019 21:30 EST-3,630P  0.31P  -0.93P  
01/16/2019 21:45 EST-3,540P  0.32P  -0.92P  
01/16/2019 22:00 EST-3,540P  0.32P  -0.92P  
01/16/2019 22:15 EST-3,420P  0.33P  -0.91P  
01/16/2019 22:30 EST-3,320P  0.34P  -0.90P  
01/16/2019 22:45 EST-3,230P  0.34P  -0.90P  
01/16/2019 23:00 EST-3,070P  0.35P  -0.89P  
01/16/2019 23:15 EST-2,910P  0.35P  -0.89P  
01/16/2019 23:30 EST-2,790P  0.36P  -0.88P  
01/16/2019 23:45 EST-2,700P  0.37P  -0.87P  
01/17/2019 00:00 EST-2,610P  0.36P  -0.88P  
01/17/2019 00:15 EST-2,490P  0.37P  -0.87P  
01/17/2019 00:30 EST-2,320P  0.38P  -0.86P  
01/17/2019 00:45 EST-2,280P  0.38P  -0.86P  
01/17/2019 01:00 EST-2,000P  0.39P  -0.85P  
01/17/2019 01:15 EST-1,640P  0.39P  -0.85P  
01/17/2019 01:30 EST-1,380P  0.39P  -0.85P  
01/17/2019 01:45 EST-1,250P  0.39P  -0.85P  
01/17/2019 02:00 EST-1,160P  0.39P  -0.85P  
01/17/2019 02:15 EST-881P  0.39P  -0.85P  
01/17/2019 02:30 EST-686P  0.39P  -0.85P  
01/17/2019 02:45 EST-402P  0.39P  -0.85P  
01/17/2019 03:00 EST-650P  0.39P  -0.85P  
01/17/2019 03:15 EST-437P  0.39P  -0.85P  
01/17/2019 03:30 EST-437P  0.39P  -0.85P  
01/17/2019 03:45 EST-348P  0.39P  -0.85P  
01/17/2019 04:00 EST-331P  0.39P  -0.85P  
01/17/2019 04:15 EST-278P  0.39P  -0.85P  
01/17/2019 04:30 EST-278P  0.39P  -0.85P  
01/17/2019 04:45 EST-384P  0.39P  -0.85P  
01/17/2019 05:00 EST-419P  0.39P  -0.85P  
01/17/2019 05:15 EST-473P  0.39P  -0.85P  
01/17/2019 05:30 EST-668P  0.39P  -0.85P  
01/17/2019 05:45 EST-810P  0.40P  -0.84P  
01/17/2019 06:00 EST-935P  0.40P  -0.84P  
01/17/2019 06:15 EST-1,020P  0.40P  -0.84P  
01/17/2019 06:30 EST-988P  0.40P  -0.84P  
01/17/2019 06:45 EST-1,040P  0.40P  -0.84P  
01/17/2019 07:00 EST-1,150P  0.41P  -0.83P  
01/17/2019 07:15 EST-1,080P  0.41P  -0.83P  
01/17/2019 07:30 EST-1,270P  0.41P  -0.83P  
01/17/2019 07:45 EST-1,630P  0.41P  -0.83P  
01/17/2019 08:00 EST-1,610P  0.41P  -0.83P  
01/17/2019 08:15 EST-1,680P  0.42P  -0.82P  
01/17/2019 08:30 EST-1,630P  0.42P  -0.82P  
01/17/2019 08:45 EST-1,680P  0.42P  -0.82P  
01/17/2019 09:00 EST-1,770P  0.42P  -0.82P  
01/17/2019 09:15 EST-1,830P  0.43P  -0.81P  
01/17/2019 09:30 EST-1,990P  0.47P  -0.77P  
01/17/2019 09:45 EST-1,990P  0.43P  -0.81P  
01/17/2019 10:00 EST-2,200P  0.43P  -0.81P  
01/17/2019 10:15 EST-2,220P  0.43P  -0.81P  
01/17/2019 10:30 EST-2,380P  0.43P  -0.81P  
01/17/2019 10:45 EST-2,450P  0.42P  -0.82P  
01/17/2019 11:00 EST-2,750P  0.42P  -0.82P  
01/17/2019 11:15 EST-2,820P  0.41P  -0.83P  
01/17/2019 11:30 EST-2,850P  0.41P  -0.83P  
01/17/2019 11:45 EST-2,940P  0.41P  -0.83P  
01/17/2019 12:00 EST-3,010P  0.40P  -0.84P  
01/17/2019 12:15 EST-3,100P  0.39P  -0.85P  
01/17/2019 12:30 EST-3,220P  0.40P  -0.84P  
01/17/2019 12:45 EST-3,130P  0.39P  -0.85P  
01/17/2019 13:00 EST-3,060P  0.40P  -0.84P  
01/17/2019 13:15 EST-3,010P  0.40P  -0.84P  
01/17/2019 13:30 EST-2,920P  0.40P  -0.84P  
01/17/2019 13:45 EST-2,900P  0.39P  -0.85P  
01/17/2019 14:00 EST-2,900P  0.39P  -0.85P  
01/17/2019 14:15 EST-2,830P  0.39P  -0.85P  
01/17/2019 14:30 EST-2,780P  0.39P  -0.85P  
01/17/2019 14:45 EST-2,730P  0.39P  -0.85P  
01/17/2019 15:00 EST-2,400P  0.38P  -0.86P  
01/17/2019 15:15 EST-2,260P  0.39P  -0.85P  
01/17/2019 15:30 EST-1,890P  0.39P  -0.85P  
01/17/2019 15:45 EST-2,100P  0.39P  -0.85P  
01/17/2019 16:00 EST-2,160P  0.39P  -0.85P  
01/17/2019 16:15 EST-2,230P  0.39P  -0.85P  
01/17/2019 16:30 EST-2,180P  0.39P  -0.85P  
01/17/2019 16:45 EST-2,100P  0.39P  -0.85P  
01/17/2019 17:00 EST-2,230P  0.39P  -0.85P  
01/17/2019 17:15 EST-2,250P  0.39P  -0.85P  
01/17/2019 17:30 EST-2,160P  0.39P  -0.85P  
01/17/2019 17:45 EST-2,120P  0.39P  -0.85P  
01/17/2019 18:00 EST-1,800P  0.40P  -0.84P  
01/17/2019 18:15 EST-1,770P  0.41P  -0.83P  
01/17/2019 18:30 EST-1,660P  0.41P  -0.83P  
01/17/2019 18:45 EST-1,610P  0.41P  -0.83P  
01/17/2019 19:00 EST-1,520P  0.41P  -0.83P  
01/17/2019 19:15 EST-1,470P  0.42P  -0.82P  
01/17/2019 19:30 EST-1,490P  0.42P  -0.82P  
01/17/2019 19:45 EST-1,340P  0.42P  -0.82P  
01/17/2019 20:00 EST-1,260P  0.42P  -0.82P  
01/17/2019 20:15 EST-1,080P  0.44P  -0.80P  
01/17/2019 20:30 EST-1,110P  0.44P  -0.80P  
01/17/2019 20:45 EST-1,080P  0.45P  -0.79P  
01/17/2019 21:00 EST-814P  0.47P  -0.77P  
01/17/2019 21:15 EST-564P  0.47P  -0.77P  
01/17/2019 21:30 EST-279P  0.48P  -0.76P  
01/17/2019 21:45 EST-47.2P  0.48P  -0.76P  
01/17/2019 22:00 EST-136P  0.48P  -0.76P  
01/17/2019 22:15 EST-279P  0.48P  -0.76P  
01/17/2019 22:30 EST-422P  0.48P  -0.76P  
01/17/2019 22:45 EST-458P  0.50P  -0.74P  
01/17/2019 23:00 EST-583P  0.50P  -0.74P  
01/17/2019 23:15 EST-494P  0.50P  -0.74P  
01/17/2019 23:30 EST-387P  0.50P  -0.74P  
01/17/2019 23:45 EST-297P  0.50P  -0.74P  
01/18/2019 00:00 EST-47.2P  0.50P  -0.74P  
01/18/2019 00:15 EST203P  0.50P  -0.74P  
01/18/2019 00:30 EST542P  0.50P  -0.74P  
01/18/2019 00:45 EST721P  0.50P  -0.74P  
01/18/2019 01:00 EST1,310P  0.50P  -0.74P  
01/18/2019 01:15 EST1,610P  0.50P  -0.74P  
01/18/2019 01:30 EST1,990P  0.50P  -0.74P  
01/18/2019 01:45 EST2,400P  0.49P  -0.75P  
01/18/2019 02:00 EST2,830P  0.49P  -0.75P  
01/18/2019 02:15 EST3,040P  0.48P  -0.76P  
01/18/2019 02:30 EST3,200P  0.48P  -0.76P  
01/18/2019 02:45 EST3,540P  0.48P  -0.76P  
01/18/2019 03:00 EST3,700P  0.47P  -0.77P  
01/18/2019 03:15 EST3,880P  0.47P  -0.77P  
01/18/2019 03:30 EST3,840P  0.47P  -0.77P  
01/18/2019 03:45 EST4,000P  0.45P  -0.79P  
01/18/2019 04:00 EST3,920P  0.45P  -0.79P  
01/18/2019 04:15 EST3,800P  0.45P  -0.79P  
01/18/2019 04:30 EST3,780P  0.46P  -0.78P  
01/18/2019 04:45 EST3,800P  0.45P  -0.79P  
01/18/2019 05:00 EST3,820P  0.45P  -0.79P  
01/18/2019 05:15 EST3,760P  0.45P  -0.79P  
01/18/2019 05:30 EST3,600P  0.45P  -0.79P  
01/18/2019 05:45 EST3,500P  0.45P  -0.79P  
01/18/2019 06:00 EST3,460P  0.45P  -0.79P  
01/18/2019 06:15 EST3,430P  0.46P  -0.78P  
01/18/2019 06:30 EST3,250P  0.47P  -0.77P  
01/18/2019 06:45 EST3,060P  0.47P  -0.77P  
01/18/2019 07:00 EST2,830P  0.48P  -0.76P  
01/18/2019 07:15 EST2,470P  0.49P  -0.75P  
01/18/2019 07:30 EST2,260P  0.49P  -0.75P  
01/18/2019 07:45 EST1,920P  0.49P  -0.75P  
01/18/2019 08:00 EST1,650P  0.50P  -0.74P  
01/18/2019 08:15 EST1,150P  0.50P  -0.74P  
01/18/2019 08:30 EST810P  0.50P  -0.74P  
01/18/2019 08:45 EST382P  0.51P  -0.73P  
01/18/2019 09:00 EST-244P  0.51P  -0.73P  
01/18/2019 09:15 EST-727P  0.51P  -0.73P  
01/18/2019 09:30 EST-1,280P  0.50P  -0.74P  
01/18/2019 09:45 EST-1,620P  0.50P  -0.74P  
01/18/2019 10:00 EST-1,990P  0.49P  -0.75P  
01/18/2019 10:15 EST-2,130P  0.48P  -0.76P  
01/18/2019 10:30 EST-2,330P  0.48P  -0.76P  
01/18/2019 10:45 EST-2,390P  0.49P  -0.75P  
01/18/2019 11:00 EST-2,580P  0.48P  -0.76P  
01/18/2019 11:15 EST-2,670P  0.49P  -0.75P  
01/18/2019 11:30 EST-2,550P  0.49P  -0.75P  
01/18/2019 11:45 EST-2,530P  0.49P  -0.75P  
01/18/2019 12:00 EST-2,440P  0.50P  -0.74P  
01/18/2019 12:15 EST-2,350P  0.50P  -0.74P  
01/18/2019 12:30 EST-2,280P  0.50P  -0.74P  
01/18/2019 12:45 EST-2,070P  0.50P  -0.74P  
01/18/2019 13:00 EST-1,990P  0.50P  -0.74P  
01/18/2019 13:15 EST-1,830P  0.51P  -0.73P  
01/18/2019 13:30 EST-1,870P  0.52P  -0.72P  
01/18/2019 13:45 EST-1,680P  0.52P  -0.72P  
01/18/2019 14:00 EST-1,510P  0.52P  -0.72P  
01/18/2019 14:15 EST-1,210P  0.52P  -0.72P  
01/18/2019 14:30 EST-1,180P  0.53P  -0.71P  
01/18/2019 14:45 EST-1,050P  0.53P  -0.71P  
01/18/2019 15:00 EST-853P  0.53P  -0.71P  
01/18/2019 15:15 EST-513P  0.53P  -0.71P  
01/18/2019 15:30 EST-11.5P  0.53P  -0.71P  
01/18/2019 15:45 EST346P  0.53P  -0.71P  
01/18/2019 16:00 EST669P  0.53P  -0.71P  
01/18/2019 16:15 EST1,170P  0.53P  -0.71P  
01/18/2019 16:30 EST1,620P  0.53P  -0.71P  
01/18/2019 16:45 EST2,190P  0.53P  -0.71P  
01/18/2019 17:00 EST2,790P  0.50P  -0.74P  
01/18/2019 17:15 EST3,100P  0.50P  -0.74P  
01/18/2019 17:30 EST3,360P  0.49P  -0.75P  
01/18/2019 17:45 EST3,680P  0.49P  -0.75P  
01/18/2019 18:00 EST3,810P  0.49P  -0.75P  
01/18/2019 18:15 EST3,930P  0.48P  -0.76P  
01/18/2019 18:30 EST3,650P  0.48P  -0.76P  
01/18/2019 18:45 EST3,680P  0.49P  -0.75P  
01/18/2019 19:00 EST3,600P  0.50P  -0.74P  
01/18/2019 19:15 EST3,550P  0.51P  -0.73P  
01/18/2019 19:30 EST3,350P  0.52P  -0.72P  
01/18/2019 19:45 EST3,340P  0.53P  -0.71P  
01/18/2019 20:00 EST3,160P  0.53P  -0.71P  
01/18/2019 20:15 EST2,930P  0.54P  -0.70P  
01/18/2019 20:30 EST2,730P  0.54P  -0.70P  
01/18/2019 20:45 EST2,520P  0.56P  -0.68P  
01/18/2019 21:00 EST2,410P  0.56P  -0.68P  
01/18/2019 21:15 EST2,210P  0.57P  -0.67P  
01/18/2019 21:30 EST1,930P  0.58P  -0.66P  
01/18/2019 21:45 EST1,700P  0.59P  -0.65P  
01/18/2019 22:00 EST1,280P  0.60P  -0.64P  
01/18/2019 22:15 EST905P  0.60P  -0.64P  
01/18/2019 22:30 EST851P  0.60P  -0.64P  
01/18/2019 22:45 EST528P  0.61P  -0.63P  
01/18/2019 23:00 EST384P  0.61P  -0.63P  
01/18/2019 23:15 EST168P  0.61P  -0.63P  
01/18/2019 23:30 EST186P  0.61P  -0.63P  
01/18/2019 23:45 EST42.4P  0.61P  -0.63P  
01/19/2019 00:00 EST24.4P  0.61P  -0.63P  
01/19/2019 00:15 EST204P  0.61P  -0.63P  
01/19/2019 00:30 EST510P  0.61P  -0.63P  
01/19/2019 00:45 EST888P  0.61P  -0.63P  
01/19/2019 01:00 EST1,230P  0.61P  -0.63P  
01/19/2019 01:15 EST1,550P  0.61P  -0.63P  
01/19/2019 01:30 EST1,790P  0.60P  -0.64P  
01/19/2019 01:45 EST2,040P  0.60P  -0.64P  
01/19/2019 02:00 EST2,400P  0.59P  -0.65P  
01/19/2019 02:15 EST2,810P  0.59P  -0.65P  
01/19/2019 02:30 EST3,240P  0.58P  -0.66P  
01/19/2019 02:45 EST3,340P  0.57P  -0.67P  
01/19/2019 03:00 EST3,450P  0.57P  -0.67P  
01/19/2019 03:15 EST3,540P  0.55P  -0.69P  
01/19/2019 03:30 EST3,750P  0.55P  -0.69P  
01/19/2019 03:45 EST3,820P  0.54P  -0.70P  
01/19/2019 04:00 EST3,880P  0.54P  -0.70P  
01/19/2019 04:15 EST3,910P  0.53P  -0.71P  
01/19/2019 04:30 EST3,910P  0.53P  -0.71P  
01/19/2019 04:45 EST3,840P  0.53P  -0.71P  
01/19/2019 05:00 EST3,820P  0.53P  -0.71P  
01/19/2019 05:15 EST3,850P  0.53P  -0.71P  
01/19/2019 05:30 EST3,850P  0.53P  -0.71P  
01/19/2019 05:45 EST3,780P  0.53P  -0.71P  
01/19/2019 06:00 EST3,780P  0.53P  -0.71P  
01/19/2019 06:15 EST3,620P  0.53P  -0.71P  
01/19/2019 06:30 EST3,510P  0.53P  -0.71P  
01/19/2019 06:45 EST3,410P  0.53P  -0.71P  
01/19/2019 07:00 EST3,160P  0.54P  -0.70P  
01/19/2019 07:15 EST2,890P  0.54P  -0.70P  
01/19/2019 07:30 EST2,660P  0.56P  -0.68P  
01/19/2019 07:45 EST2,320P  0.56P  -0.68P  
01/19/2019 08:00 EST2,000P  0.57P  -0.67P  
01/19/2019 08:15 EST1,730P  0.58P  -0.66P  
01/19/2019 08:30 EST1,390P  0.58P  -0.66P  
01/19/2019 08:45 EST1,160P  0.59P  -0.65P  
01/19/2019 09:00 EST671P  0.59P  -0.65P  
01/19/2019 09:15 EST312P  0.60P  -0.64P  
01/19/2019 09:30 EST-227P  0.60P  -0.64P  
01/19/2019 09:45 EST-587P  0.60P  -0.64P  
01/19/2019 10:00 EST-982P  0.59P  -0.65P  
01/19/2019 10:15 EST-1,270P  0.59P  -0.65P  
01/19/2019 10:30 EST-1,520P  0.59P  -0.65P  
01/19/2019 10:45 EST-1,720P  0.59P  -0.65P  
01/19/2019 11:00 EST-1,880P  0.60P  -0.64P  
01/19/2019 11:15 EST-2,010P  0.61P  -0.63P  
01/19/2019 11:30 EST-1,810P  0.61P  -0.63P  
01/19/2019 11:45 EST-1,670P  0.62P  -0.62P  
01/19/2019 12:00 EST-1,490P  0.63P  -0.61P  
01/19/2019 12:15 EST-1,360P  0.64P  -0.60P  
01/19/2019 12:30 EST-1,220P  0.64P  -0.60P  
01/19/2019 12:45 EST-1,080P  0.65P  -0.59P  
01/19/2019 13:00 EST-697P  0.66P  -0.58P  
01/19/2019 13:15 EST-517P  0.66P  -0.58P  
01/19/2019 13:30 EST-65.9P  0.69P  -0.55P  
01/19/2019 13:45 EST368P  0.69P  -0.55P  
01/19/2019 14:00 EST1,070P  0.69P  -0.55P  
01/19/2019 14:15 EST1,550P  0.71P  -0.53P  
01/19/2019 14:30 EST2,070P  0.71P  -0.53P  
01/19/2019 14:45 EST2,540P  0.71P  -0.53P  
01/19/2019 15:00 EST3,220P  0.67P  -0.57P  
01/19/2019 15:15 EST3,590P  0.69P  -0.55P  
01/19/2019 15:30 EST4,060P  0.65P  -0.59P  
01/19/2019 15:45 EST4,430P  0.65P  -0.59P  
01/19/2019 16:00 EST4,850P  0.63P  -0.61P  
01/19/2019 16:15 EST5,000P  0.64P  -0.60P  
01/19/2019 16:30 EST4,740P  0.62P  -0.62P  
01/19/2019 16:45 EST4,830P  0.63P  -0.61P  
01/19/2019 17:00 EST4,850P  0.62P  -0.62P  
01/19/2019 17:15 EST4,820P  0.64P  -0.60P  
01/19/2019 17:30 EST4,760P  0.63P  -0.61P  
01/19/2019 17:45 EST4,920P  0.63P  -0.61P  
01/19/2019 18:00 EST5,140P  0.62P  -0.62P  
01/19/2019 18:15 EST5,400P  0.60P  -0.64P  
01/19/2019 18:30 EST5,610P  0.59P  -0.65P  
01/19/2019 18:45 EST5,720P  0.59P  -0.65P  
01/19/2019 19:00 EST5,860P  0.59P  -0.65P  
01/19/2019 19:15 EST5,760P  0.59P  -0.65P  
01/19/2019 19:30 EST5,790P  0.58P  -0.66P  
01/19/2019 19:45 EST5,760P  0.59P  -0.65P  
01/19/2019 20:00 EST5,610P  0.59P  -0.65P  
01/19/2019 20:15 EST5,530P  0.60P  -0.64P  
01/19/2019 20:30 EST5,330P  0.61P  -0.63P  
01/19/2019 20:45 EST5,190P  0.63P  -0.61P  
01/19/2019 21:00 EST5,010P  0.63P  -0.61P  
01/19/2019 21:15 EST4,840P  0.64P  -0.60P  
01/19/2019 21:30 EST4,840P  0.65P  -0.59P  
01/19/2019 21:45 EST4,840P  0.66P  -0.58P  
01/19/2019 22:00 EST4,920P  0.67P  -0.57P  
01/19/2019 22:15 EST4,960P  0.70P  -0.54P  
01/19/2019 22:30 EST5,220P  0.70P  -0.54P  
01/19/2019 22:45 EST5,440P  0.65P  -0.59P  
01/19/2019 23:00 EST5,550P  0.67P  -0.57P  
01/19/2019 23:15 EST5,660P  0.67P  -0.57P  
01/19/2019 23:30 EST5,720P  0.70P  -0.54P  
01/19/2019 23:45 EST5,690P  0.71P  -0.53P  
01/20/2019 00:00 EST5,590P  0.72P  -0.52P  
01/20/2019 00:15 EST5,750P  0.72P  -0.52P  
01/20/2019 00:30 EST5,910P  0.72P  -0.52P  
01/20/2019 00:45 EST5,870P  0.71P  -0.53P  
01/20/2019 01:00 EST6,020P  0.71P  -0.53P  
01/20/2019 01:15 EST6,160P  0.67P  -0.57P  
01/20/2019 01:30 EST6,200P  0.68P  -0.56P  
01/20/2019 01:45 EST6,220P  0.68P  -0.56P  
01/20/2019 02:00 EST6,150P  0.69P  -0.55P  
01/20/2019 02:15 EST6,060P  0.69P  -0.55P  
01/20/2019 02:30 EST6,120P  0.70P  -0.54P  
01/20/2019 02:45 EST6,200P  0.68P  -0.56P  
01/20/2019 03:00 EST6,260P  0.69P  -0.55P  
01/20/2019 03:15 EST6,390P  0.68P  -0.56P  
01/20/2019 03:30 EST6,590P  0.65P  -0.59P  
01/20/2019 03:45 EST6,700P  0.65P  -0.59P  
01/20/2019 04:00 EST6,900P  0.65P  -0.59P  
01/20/2019 04:15 EST7,000P  0.64P  -0.60P  
01/20/2019 04:30 EST7,050P  0.64P  -0.60P  
01/20/2019 04:45 EST7,320P  0.62P  -0.62P  
01/20/2019 05:00 EST7,550P  0.62P  -0.62P  
01/20/2019 05:15 EST7,370P  0.63P  -0.61P  
01/20/2019 05:30 EST7,280P  0.63P  -0.61P  
01/20/2019 05:45 EST7,480P  0.62P  -0.62P  
01/20/2019 06:00 EST7,570P  0.63P  -0.61P  
01/20/2019 06:15 EST7,550P  0.63P  -0.61P  
01/20/2019 06:30 EST7,800P  0.65P  -0.59P  
01/20/2019 06:45 EST7,250P  0.67P  -0.57P  
01/20/2019 07:00 EST6,490P  0.66P  -0.58P  
01/20/2019 07:15 EST5,840P  0.68P  -0.56P  
01/20/2019 07:30 EST5,470P  0.69P  -0.55P  
01/20/2019 07:45 EST5,150P  0.73P  -0.51P  
01/20/2019 08:00 EST4,990P  0.74P  -0.50P  
01/20/2019 08:15 EST4,990P  0.74P  -0.50P  
01/20/2019 08:30 EST4,990P  0.74P  -0.50P  
01/20/2019 08:45 EST4,710P  0.75P  -0.49P  

Explanation
  P  Provisional data subject to revision.